CMA CGM Homere — MQBL6 — position and weather

sailwx.info

Track history (hours):
 
Tides and Currents Weather Stations Pressure Air Temp Water Temp Dewpoint Dewpoint Depression Visibility Wind Speed Wind Dir Waves Ship Positions

CMA CGM Homere

Last reported at 2017-Jun-24 05:53 UTC. Time now 2017-Jun-24 08:52 UTC.
Position N 33°59' W 008°54'.

Length 170 m; draft 9.5 m.

Type: Cargo ship. MMSI: 235052314.

Date/timePositionNaut miles runAvg speedWind from/ knotsBaromVisibWave heightAir tempDewpointWater temp
2017-Jun-24 05:53N 33°59' W 008°54'617.1
2017-Jun-24 05:31N 34°04' W 008°48'917.0
2017-Jun-24 05:00N 34°09' W 008°40'816.9
2017-Jun-24 04:30N 34°15' W 008°32'1616.8
2017-Jun-24 03:34N 34°25' W 008°18'2317.1
2017-Jun-24 02:12N 34°40' W 007°56'317.2
2017-Jun-24 02:00N 34°42' W 007°53'1717.3
2017-Jun-24 01:03N 34°54' W 007°38'117.6
2017-Jun-24 00:59N 34°54' W 007°37'817.5
2017-Jun-24 00:30N 35°00' W 007°30'3517.5
2017-Jun-23 22:29N 35°24' W 006°59'3217.9
2017-Jun-23 20:41N 35°46' W 006°29'2116.7
2017-Jun-23 19:25N 35°57' W 006°07'1316.0
2017-Jun-23 18:35N 35°58' W 005°51'315.5
2017-Jun-23 18:22N 35°58' W 005°46'614.0
2017-Jun-23 17:56N 35°58' W 005°39'512.9
2017-Jun-23 17:30N 35°59' W 005°32'612.4
2017-Jun-23 17:00N 36°02' W 005°25'4 7.6
2017-Jun-23 16:26N 36°06' W 005°25'0 0.0
2017-Jun-23 16:00N 36°06' W 005°25'0 0.0
2017-Jun-23 15:30N 36°06' W 005°25'0 0.2
2017-Jun-23 14:57N 36°06' W 005°25'0 0.0
2017-Jun-23 13:12N 36°06' W 005°25'0 0.0
2017-Jun-23 13:00N 36°06' W 005°25'0 0.0
2017-Jun-23 12:30N 36°06' W 005°25'0 0.1
2017-Jun-23 12:00N 36°06' W 005°25'0 0.1
2017-Jun-23 11:30N 36°06' W 005°25'0 0.0
2017-Jun-23 11:00N 36°06' W 005°25'0 0.1
2017-Jun-23 10:31N 36°06' W 005°25'2 3.1
2017-Jun-23 10:01N 36°08' W 005°24'1 0.1
2017-Jun-23 03:49N 36°08' W 005°25'0 0.0
2017-Jun-23 02:25N 36°08' W 005°25'0 0.0
2017-Jun-23 01:55N 36°08' W 005°25'0 0.0
2017-Jun-23 01:25N 36°08' W 005°25'0 0.0
2017-Jun-23 00:49N 36°08' W 005°25'0 0.0
2017-Jun-22 13:15N 36°07' W 005°25'1 4.8
2017-Jun-22 13:00N 36°07' W 005°24'2 4.6
2017-Jun-22 12:30N 36°05' W 005°22'510.5
2017-Jun-22 12:00N 36°04' W 005°16'0 0.3
2017-Jun-22 11:19N 36°04' W 005°16'1 3.1
2017-Jun-22 11:00N 36°04' W 005°17'4 7.2
2017-Jun-22 10:27N 36°03' W 005°22'4 8.6
2017-Jun-22 10:00N 35°59' W 005°23'5 9.8
2017-Jun-22 09:30N 35°57' W 005°28'18 0.7
2017-Jun-21 07:36N 35°53' W 005°49'56516.9
2017-Jun-19 22:10N 28°42' W 013°00'2516.2
2017-Jun-19 20:38N 28°21' W 013°16'3215.8
2017-Jun-19 18:36N 27°54' W 013°36'  
Track history (hours):
 
Tides and Currents Weather Stations Pressure Air Temp Water Temp Dewpoint Dewpoint Depression Visibility Wind Speed Wind Dir Waves Ship Positions

CMA CGM Homere

Last reported at 2017-Jun-24 05:53 UTC. Time now 2017-Jun-24 08:52 UTC.
Position N 33°59' W 008°54'.

Length 170 m; draft 9.5 m.

Type: Cargo ship. MMSI: 235052314.

Date/timePositionNaut miles runAvg speedWind from/ knotsBaromVisibWave heightAir tempDewpointWater temp
2017-Jun-24 05:53N 33°59' W 008°54'617.1
2017-Jun-24 05:31N 34°04' W 008°48'917.0
2017-Jun-24 05:00N 34°09' W 008°40'816.9
2017-Jun-24 04:30N 34°15' W 008°32'1616.8
2017-Jun-24 03:34N 34°25' W 008°18'2317.1
2017-Jun-24 02:12N 34°40' W 007°56'317.2
2017-Jun-24 02:00N 34°42' W 007°53'1717.3
2017-Jun-24 01:03N 34°54' W 007°38'117.6
2017-Jun-24 00:59N 34°54' W 007°37'817.5
2017-Jun-24 00:30N 35°00' W 007°30'3517.5
2017-Jun-23 22:29N 35°24' W 006°59'3217.9
2017-Jun-23 20:41N 35°46' W 006°29'2116.7
2017-Jun-23 19:25N 35°57' W 006°07'1316.0
2017-Jun-23 18:35N 35°58' W 005°51'315.5
2017-Jun-23 18:22N 35°58' W 005°46'614.0
2017-Jun-23 17:56N 35°58' W 005°39'512.9
2017-Jun-23 17:30N 35°59' W 005°32'612.4
2017-Jun-23 17:00N 36°02' W 005°25'4 7.6
2017-Jun-23 16:26N 36°06' W 005°25'0 0.0
2017-Jun-23 16:00N 36°06' W 005°25'0 0.0
2017-Jun-23 15:30N 36°06' W 005°25'0 0.2
2017-Jun-23 14:57N 36°06' W 005°25'0 0.0
2017-Jun-23 13:12N 36°06' W 005°25'0 0.0
2017-Jun-23 13:00N 36°06' W 005°25'0 0.0
2017-Jun-23 12:30N 36°06' W 005°25'0 0.1
2017-Jun-23 12:00N 36°06' W 005°25'0 0.1
2017-Jun-23 11:30N 36°06' W 005°25'0 0.0
2017-Jun-23 11:00N 36°06' W 005°25'0 0.1
2017-Jun-23 10:31N 36°06' W 005°25'2 3.1
2017-Jun-23 10:01N 36°08' W 005°24'1 0.1
2017-Jun-23 03:49N 36°08' W 005°25'0 0.0
2017-Jun-23 02:25N 36°08' W 005°25'0 0.0
2017-Jun-23 01:55N 36°08' W 005°25'0 0.0
2017-Jun-23 01:25N 36°08' W 005°25'0 0.0
2017-Jun-23 00:49N 36°08' W 005°25'0 0.0
2017-Jun-22 13:15N 36°07' W 005°25'1 4.8
2017-Jun-22 13:00N 36°07' W 005°24'2 4.6
2017-Jun-22 12:30N 36°05' W 005°22'510.5
2017-Jun-22 12:00N 36°04' W 005°16'0 0.3
2017-Jun-22 11:19N 36°04' W 005°16'1 3.1
2017-Jun-22 11:00N 36°04' W 005°17'4 7.2
2017-Jun-22 10:27N 36°03' W 005°22'4 8.6
2017-Jun-22 10:00N 35°59' W 005°23'5 9.8
2017-Jun-22 09:30N 35°57' W 005°28'18 0.7
2017-Jun-21 07:36N 35°53' W 005°49'56516.9
2017-Jun-19 22:10N 28°42' W 013°00'2516.2
2017-Jun-19 20:38N 28°21' W 013°16'3215.8
2017-Jun-19 18:36N 27°54' W 013°36'  

Dump ship's entire track history